Terminal Aerodrome Forecast
Issued by NWS

Current Version | Previous Version | Graphics & Text | Print | Product List | Glossary On
Versions: 1 2 3 4 5 6 7 8 9 10 11 12 13 14
000
FTUS41 KILN 260248 AAA
TAFLCK
TAF AMD
KLCK 260248Z 2603/2624 12005KT P6SM SCT250
     FM260900 15003KT 4SM BR SCT250
     FM261300 16007KT P6SM SCT250
     FM261600 17010G18KT P6SM SCT250=

USA.gov is the U.S. government's official web portal to all federal, state and local government web resources and services.